createdAt,value
2023-01-20T00:01:13.815Z,100415.66
2023-01-20T00:04:01.663Z,100413.19
2023-01-20T00:07:05.533Z,100418.12
2023-01-20T00:10:10.878Z,100427.51
2023-01-20T00:13:50.101Z,100430.24
2023-01-20T00:16:40.440Z,100431.38
2023-01-20T00:20:05.536Z,100428.95
2023-01-20T00:23:33.984Z,100426.90
2023-01-20T00:27:06.080Z,100426.07
2023-01-20T00:29:56.216Z,100425.11
2023-01-20T00:32:49.973Z,100428.35
2023-01-20T00:35:43.345Z,100430.28
2023-01-20T00:38:48.498Z,100432.75
2023-01-20T00:42:12.020Z,100432.91
2023-01-20T00:46:01.410Z,100434.86
2023-01-20T00:49:31.370Z,100437.02
2023-01-20T00:53:20.345Z,100442.34
2023-01-20T00:56:41.787Z,100449.74
2023-01-20T00:59:43.219Z,100459.14
2023-01-20T01:03:23.378Z,100463.46
2023-01-20T01:07:12.407Z,100463.91
2023-01-20T01:11:01.602Z,100462.39
2023-01-20T01:14:13.666Z,100463.03
2023-01-20T01:17:45.956Z,100464.10
2023-01-20T01:20:46.338Z,100462.41
2023-01-20T01:23:40.031Z,100469.59
2023-01-20T01:26:56.329Z,100475.57
2023-01-20T01:30:11.182Z,100481.71
2023-01-20T01:33:51.416Z,100490.52
2023-01-20T01:37:08.144Z,100493.10
2023-01-20T01:40:47.262Z,100490.64
2023-01-20T01:44:09.870Z,100489.37
2023-01-20T01:47:42.053Z,100489.16
2023-01-20T01:51:23.930Z,100491.52
2023-01-20T01:55:06.806Z,100494.18
2023-01-20T01:58:38.743Z,100494.75
2023-01-20T02:02:17.673Z,100498.44
2023-01-20T02:05:58.034Z,100500.38
2023-01-20T02:09:11.354Z,100502.14
2023-01-20T02:12:43.702Z,100506.79
2023-01-20T02:16:17.957Z,100512.64
2023-01-20T02:20:06.283Z,100518.75
2023-01-20T02:23:46.221Z,100526.22
2023-01-20T02:27:27.066Z,100526.34
2023-01-20T02:31:15.638Z,100531.27
2023-01-20T02:34:57.579Z,100531.86
2023-01-20T02:39:07.910Z,100530.70
2023-01-20T02:42:42.460Z,100532.04
2023-01-20T02:46:15.999Z,100532.59
2023-01-20T02:50:03.319Z,100531.73
2023-01-20T02:53:33.838Z,100536.50
2023-01-20T02:57:15.108Z,100540.20
2023-01-20T03:01:05.368Z,100537.94
2023-01-20T03:04:29.198Z,100539.86
2023-01-20T03:08:01.661Z,100542.56
2023-01-20T03:11:17.255Z,100545.03
2023-01-20T03:14:30.277Z,100549.25
2023-01-20T03:17:48.897Z,100551.77
2023-01-20T03:21:37.801Z,100551.08
2023-01-20T03:25:17.013Z,100554.57
2023-01-20T03:28:31.659Z,100558.30
2023-01-20T03:32:18.396Z,100554.50
2023-01-20T03:35:21.234Z,100554.84
2023-01-20T03:38:32.151Z,100555.84
2023-01-20T03:41:46.840Z,100559.73
2023-01-20T03:45:30.037Z,100562.32
2023-01-20T03:48:58.909Z,100562.06
2023-01-20T03:52:48.305Z,100572.52
2023-01-20T03:56:36.788Z,100580.95
2023-01-20T04:00:18.489Z,100591.92
2023-01-20T04:03:55.553Z,100597.37
2023-01-20T04:07:30.752Z,100600.48
2023-01-20T04:10:35.169Z,100605.77
2023-01-20T04:14:07.071Z,100616.02
2023-01-20T04:17:29.377Z,100616.67
2023-01-20T04:20:54.307Z,100615.30
2023-01-20T04:24:35.843Z,100618.79
2023-01-20T04:28:06.726Z,100623.20
2023-01-20T04:31:38.488Z,100624.22
2023-01-20T04:35:00.602Z,100631.16
2023-01-20T04:38:49.644Z,100634.17
2023-01-20T04:42:18.347Z,100640.34
2023-01-20T04:46:07.790Z,100637.42
2023-01-20T04:49:17.975Z,100638.89
2023-01-20T04:52:45.769Z,100642.36
2023-01-20T04:56:14.615Z,100640.23
2023-01-20T04:59:22.709Z,100638.75
2023-01-20T05:02:55.574Z,100640.81
2023-01-20T05:06:17.784Z,100643.67
2023-01-20T05:09:47.688Z,100649.94
2023-01-20T05:13:06.752Z,100651.42
2023-01-20T05:16:35.671Z,100657.73
2023-01-20T05:20:18.893Z,100668.36
2023-01-20T05:23:57.321Z,100668.98
2023-01-20T05:27:09.117Z,100671.60
2023-01-20T05:30:33.502Z,100680.75
2023-01-20T05:34:05.437Z,100684.60
2023-01-20T05:37:26.828Z,100691.62
2023-01-20T05:40:51.224Z,100692.06
2023-01-20T05:44:23.868Z,100698.10
2023-01-20T05:48:06.116Z,100700.46
2023-01-20T05:51:30.422Z,100707.35
2023-01-20T05:54:52.617Z,100711.04
2023-01-20T05:58:07.129Z,100711.45
2023-01-20T06:01:18.957Z,100713.27
2023-01-20T06:05:01.550Z,100718.45
2023-01-20T06:08:40.767Z,100724.77
2023-01-20T06:11:43.090Z,100728.10
2023-01-20T06:15:14.888Z,100732.33
2023-01-20T06:18:46.653Z,100731.84
2023-01-20T06:21:41.554Z,100735.55
2023-01-20T06:25:05.014Z,100737.67
2023-01-20T06:28:53.973Z,100733.50
2023-01-20T06:32:42.938Z,100750.43
2023-01-20T06:36:15.359Z,100752.59
2023-01-20T06:39:45.195Z,100754.89
2023-01-20T06:43:25.569Z,100758.89
2023-01-20T06:46:38.441Z,100766.20
2023-01-20T06:50:27.544Z,100771.93
2023-01-20T06:54:09.358Z,100783.34
2023-01-20T06:57:23.747Z,100785.18
2023-01-20T07:00:55.815Z,100787.23
2023-01-20T07:04:05.095Z,100786.23
2023-01-20T07:07:25.376Z,100781.25
2023-01-20T07:11:07.588Z,100790.35
2023-01-20T07:14:39.102Z,100793.67
2023-01-20T07:17:50.973Z,100799.80
2023-01-20T07:20:57.177Z,100807.48
2023-01-20T07:24:37.267Z,100822.42
2023-01-20T07:27:28.203Z,100829.08
2023-01-20T07:31:00.582Z,100830.20
2023-01-20T07:34:35.163Z,100837.40
2023-01-20T07:38:01.767Z,100832.27
2023-01-20T07:41:40.778Z,100838.15
2023-01-20T07:45:12.933Z,100839.44
2023-01-20T07:48:51.023Z,100843.59
2023-01-20T07:52:22.860Z,100839.69
2023-01-20T07:56:04.732Z,100854.34
2023-01-20T07:59:43.900Z,100854.69
2023-01-20T08:03:17.206Z,100852.48
2023-01-20T08:07:05.040Z,100852.33
2023-01-20T08:10:38.030Z,100844.35
2023-01-20T08:14:19.869Z,100845.60
2023-01-20T08:18:08.953Z,100843.63
2023-01-20T08:21:47.803Z,100851.98
2023-01-20T08:25:36.828Z,100854.83
2023-01-20T08:29:25.947Z,100859.14
2023-01-20T08:33:01.132Z,100867.15
2023-01-20T08:36:25.633Z,100871.58
2023-01-20T08:40:03.232Z,100879.35
2023-01-20T08:43:51.832Z,100891.09
2023-01-20T08:47:16.458Z,100895.02
2023-01-20T08:50:27.417Z,100900.38
2023-01-20T08:54:16.510Z,100911.08
2023-01-20T08:57:50.790Z,100922.37
2023-01-20T09:01:29.684Z,100930.09
2023-01-20T09:04:56.969Z,100931.83
2023-01-20T09:08:38.490Z,100940.00
2023-01-20T09:12:06.950Z,100942.85
2023-01-20T09:15:56.042Z,100947.06
2023-01-20T09:19:37.776Z,100946.81
2023-01-20T09:23:26.865Z,100955.30
2023-01-20T09:27:15.853Z,100955.77
2023-01-20T09:30:53.975Z,100962.80
2023-01-20T09:34:35.746Z,100964.19
2023-01-20T09:37:55.446Z,100957.34
2023-01-20T09:41:44.297Z,100959.89
2023-01-20T09:45:29.193Z,100965.28
2023-01-20T09:49:28.627Z,100975.73
2023-01-20T09:53:21.789Z,100972.27
2023-01-20T09:57:15.532Z,100973.89
2023-01-20T10:00:58.711Z,100975.76
2023-01-20T10:04:33.394Z,100968.32
2023-01-20T10:07:58.759Z,100967.23
2023-01-20T10:11:30.663Z,100963.70
2023-01-20T10:15:39.751Z,100954.58
2023-01-20T10:19:40.670Z,100944.94
2023-01-20T10:23:22.149Z,100939.27
2023-01-20T10:27:12.239Z,100937.23
2023-01-20T10:30:51.704Z,100946.81
2023-01-20T10:34:08.714Z,100946.72
2023-01-20T10:37:32.966Z,100949.39
2023-01-20T10:41:31.020Z,100953.91
2023-01-20T10:45:02.841Z,100961.95
2023-01-20T10:48:24.235Z,100964.34
2023-01-20T10:51:59.347Z,100967.42
2023-01-20T10:55:52.706Z,100968.98
2023-01-20T10:59:15.605Z,100970.73
2023-01-20T11:02:58.934Z,100972.16
2023-01-20T11:06:31.347Z,100971.47
2023-01-20T11:10:13.334Z,100974.29
2023-01-20T11:13:57.522Z,100969.93
2023-01-20T11:17:20.510Z,100962.01
2023-01-20T11:20:59.111Z,100963.62
2023-01-20T11:24:39.587Z,100973.41
2023-01-20T11:28:28.624Z,100980.47
2023-01-20T11:31:58.593Z,100989.48
2023-01-20T11:35:56.325Z,100998.63
2023-01-20T11:39:44.061Z,101004.25
2023-01-20T11:43:42.247Z,101009.10
2023-01-20T11:47:32.595Z,101016.19
2023-01-20T11:51:06.151Z,101018.35
2023-01-20T11:54:41.605Z,101019.19
2023-01-20T11:58:37.254Z,101019.33
2023-01-20T12:02:31.924Z,101024.20
2023-01-20T12:06:18.059Z,101035.23
2023-01-20T12:10:07.047Z,101040.64
2023-01-20T12:13:55.351Z,101039.90
2023-01-20T12:17:40.859Z,101041.55
2023-01-20T12:21:19.282Z,101043.96
2023-01-20T12:25:29.253Z,101044.84
2023-01-20T12:29:19.906Z,101048.26
2023-01-20T12:32:41.757Z,101048.20
2023-01-20T12:36:25.111Z,101044.27
2023-01-20T12:40:12.743Z,101047.64
2023-01-20T12:44:15.813Z,101053.86
2023-01-20T12:47:50.836Z,101055.25
2023-01-20T12:52:02.781Z,101056.80
2023-01-20T12:55:39.957Z,101058.86
2023-01-20T12:59:35.326Z,101064.04
2023-01-20T13:03:33.284Z,101059.09
2023-01-20T13:07:13.742Z,101066.25
2023-01-20T13:10:52.395Z,101066.11
2023-01-20T13:14:53.165Z,101059.83
2023-01-20T13:18:48.026Z,101064.77
2023-01-20T13:21:42.602Z,101069.11
2023-01-20T13:25:31.614Z,101069.36
2023-01-20T13:29:13.640Z,101073.98
2023-01-20T13:32:53.857Z,101079.89
2023-01-20T13:36:19.467Z,101089.14
2023-01-20T13:39:49.738Z,101092.05
2023-01-20T13:43:30.933Z,101097.64
2023-01-20T13:47:20.129Z,101099.16
2023-01-20T13:51:00.289Z,101104.17
2023-01-20T13:55:04.407Z,101108.64
2023-01-20T13:59:02.806Z,101112.12
2023-01-20T14:03:01.225Z,101111.58
2023-01-20T14:06:33.271Z,101114.19
2023-01-20T14:10:06.771Z,101117.66
2023-01-20T14:13:56.095Z,101126.81
2023-01-20T14:17:45.628Z,101136.77
2023-01-20T14:21:24.603Z,101144.92
2023-01-20T14:25:29.010Z,101143.64
2023-01-20T14:29:21.322Z,101153.97
2023-01-20T14:33:30.199Z,101161.25
2023-01-20T14:37:04.412Z,101169.63
2023-01-20T14:40:09.261Z,101174.71
2023-01-20T14:44:00.504Z,101180.27
2023-01-20T14:47:40.206Z,101182.78
2023-01-20T14:51:06.489Z,101185.24
2023-01-20T14:54:34.980Z,101192.58
2023-01-20T14:58:24.727Z,101194.07
2023-01-20T15:01:58.062Z,101193.67
2023-01-20T15:05:25.430Z,101192.62
2023-01-20T15:09:26.552Z,101197.02
2023-01-20T15:13:12.916Z,101203.88
2023-01-20T15:17:01.490Z,101213.23
2023-01-20T15:21:16.950Z,101222.73
2023-01-20T15:24:47.560Z,101229.11
2023-01-20T15:28:12.405Z,101235.02
2023-01-20T15:31:27.699Z,101241.65
2023-01-20T15:35:03.650Z,101247.42
2023-01-20T15:38:38.452Z,101256.44
2023-01-20T15:42:18.597Z,101261.41
2023-01-20T15:45:26.484Z,101263.98
2023-01-20T15:48:16.697Z,101266.24
2023-01-20T15:51:20.457Z,101274.27
2023-01-20T15:54:08.165Z,101273.89
2023-01-20T15:57:03.410Z,101274.35
2023-01-20T15:59:50.992Z,101278.52
2023-01-20T16:02:44.220Z,101283.90
2023-01-20T16:06:07.453Z,101289.29
2023-01-20T16:09:33.906Z,101292.17
2023-01-20T16:13:03.701Z,101291.22
2023-01-20T16:16:44.752Z,101296.10
2023-01-20T16:20:18.014Z,101293.64
2023-01-20T16:24:04.632Z,101296.03
2023-01-20T16:27:17.763Z,101298.60
2023-01-20T16:29:58.076Z,101306.30
2023-01-20T16:32:27.187Z,101310.23
2023-01-20T16:35:33.103Z,101310.36
2023-01-20T16:38:47.439Z,101314.25
2023-01-20T16:42:29.447Z,101318.23
2023-01-20T16:46:15.484Z,101318.22
2023-01-20T16:50:04.683Z,101321.94
2023-01-20T16:53:29.642Z,101327.05
2023-01-20T16:57:04.548Z,101337.88
2023-01-20T17:00:43.467Z,101350.10
2023-01-20T17:04:22.432Z,101356.52
2023-01-20T17:07:46.102Z,101363.44
2023-01-20T17:10:40.125Z,101364.58
2023-01-20T17:13:43.703Z,101371.35
2023-01-20T17:16:44.723Z,101369.98
2023-01-20T17:19:52.463Z,101368.69
2023-01-20T17:23:27.990Z,101364.88
2023-01-20T17:26:38.923Z,101366.45
2023-01-20T17:30:10.346Z,101372.79
2023-01-20T17:32:58.431Z,101374.25
2023-01-20T17:37:00.609Z,101377.42
2023-01-20T17:40:04.605Z,101385.81
2023-01-20T17:43:46.105Z,101388.01
2023-01-20T17:47:10.102Z,101392.96
2023-01-20T17:50:14.929Z,101389.34
2023-01-20T17:53:21.171Z,101390.96
2023-01-20T17:56:13.636Z,101391.73
2023-01-20T17:59:50.273Z,101401.35
2023-01-20T18:03:20.694Z,101405.57
2023-01-20T18:06:38.988Z,101408.55
2023-01-20T18:10:01.085Z,101411.90
2023-01-20T18:13:36.692Z,101415.84
2023-01-20T18:17:26.380Z,101419.01
2023-01-20T18:21:00.052Z,101432.49
2023-01-20T18:24:34.264Z,101439.93
2023-01-20T18:27:54.828Z,101445.91
2023-01-20T18:31:22.403Z,101453.09
2023-01-20T18:34:50.324Z,101456.64
2023-01-20T18:39:12.311Z,101457.06
2023-01-20T18:42:56.275Z,101463.70
2023-01-20T18:46:19.652Z,101468.84
2023-01-20T18:50:01.902Z,101470.09
2023-01-20T18:53:44.464Z,101481.61
2023-01-20T18:57:31.717Z,101487.58
2023-01-20T19:01:29.627Z,101491.98
2023-01-20T19:05:18.622Z,101495.23
2023-01-20T19:08:59.512Z,101501.64
2023-01-20T19:12:51.249Z,101498.52
2023-01-20T19:16:42.009Z,101496.10
2023-01-20T19:20:14.045Z,101491.93
2023-01-20T19:24:08.220Z,101497.38
2023-01-20T19:27:45.627Z,101493.37
2023-01-20T19:31:37.517Z,101495.85
2023-01-20T19:35:21.006Z,101508.00
2023-01-20T19:39:11.182Z,101506.79
2023-01-20T19:43:04.468Z,101504.02
2023-01-20T19:47:04.332Z,101503.42
2023-01-20T19:50:40.098Z,101505.23
2023-01-20T19:54:51.738Z,101505.79
2023-01-20T19:58:38.960Z,101516.41
2023-01-20T20:02:36.030Z,101515.13
2023-01-20T20:06:27.914Z,101515.63
2023-01-20T20:10:19.407Z,101511.36
2023-01-20T20:14:09.954Z,101508.65
2023-01-20T20:17:48.313Z,101516.58
2023-01-20T20:21:37.815Z,101520.35
2023-01-20T20:25:29.071Z,101522.63
2023-01-20T20:29:23.468Z,101528.27
2023-01-20T20:33:15.974Z,101534.86
2023-01-20T20:37:09.665Z,101549.50
2023-01-20T20:41:00.301Z,101555.52
2023-01-20T20:44:53.171Z,101563.15
2023-01-20T20:48:50.854Z,101567.14
2023-01-20T20:52:42.364Z,101569.32
2023-01-20T20:56:33.902Z,101570.84
2023-01-20T21:00:29.170Z,101566.63
2023-01-20T21:04:20.467Z,101569.83
2023-01-20T21:08:14.727Z,101571.38
2023-01-20T21:12:46.612Z,101573.30
2023-01-20T21:16:39.039Z,101571.39
2023-01-20T21:20:30.294Z,101562.61
2023-01-20T21:24:40.446Z,101554.16
2023-01-20T21:28:37.323Z,101563.30
2023-01-20T21:32:36.688Z,101565.19
2023-01-20T21:36:26.316Z,101559.41
2023-01-20T21:40:27.398Z,101554.66
2023-01-20T21:44:16.056Z,101573.89
2023-01-20T21:48:12.042Z,101572.46
2023-01-20T21:52:02.336Z,101575.55
2023-01-20T21:56:14.777Z,101572.05
2023-01-20T22:00:07.289Z,101565.93
2023-01-20T22:04:04.969Z,101567.50
2023-01-20T22:08:15.138Z,101568.38
2023-01-20T22:12:27.087Z,101569.52
2023-01-20T22:16:37.695Z,101571.10
2023-01-20T22:20:29.049Z,101575.89
2023-01-20T22:24:19.415Z,101572.23
2023-01-20T22:28:09.926Z,101576.02
2023-01-20T22:32:15.944Z,101593.39
2023-01-20T22:36:06.698Z,101598.28
2023-01-20T22:39:57.579Z,101602.91
2023-01-20T22:43:48.333Z,101599.89
2023-01-20T22:47:39.805Z,101593.02
2023-01-20T22:51:31.051Z,101587.64
2023-01-20T22:55:43.720Z,101579.98
2023-01-20T22:59:44.242Z,101583.20
2023-01-20T23:03:35.913Z,101580.98
2023-01-20T23:07:26.152Z,101581.61
2023-01-20T23:11:17.509Z,101576.77
2023-01-20T23:15:19.243Z,101568.33
2023-01-20T23:19:29.441Z,101551.55
2023-01-20T23:23:18.985Z,101531.73
2023-01-20T23:27:08.989Z,101519.91
2023-01-20T23:31:01.179Z,101551.10
2023-01-20T23:34:50.689Z,101553.09
2023-01-20T23:38:43.824Z,101563.44
2023-01-20T23:43:12.998Z,101553.84
2023-01-20T23:47:03.690Z,101545.55
2023-01-20T23:50:53.728Z,101530.86
2023-01-20T23:55:02.970Z,101539.11
2023-01-20T23:58:54.897Z,101538.63
